EST,Max TemperatureF,Mean TemperatureF,Min TemperatureF,Max Dew PointF,MeanDew PointF,Min DewpointF,Max Humidity, Mean Humidity, Min Humidity, Max Sea Level PressureIn, Mean Sea Level PressureIn, Min Sea Level PressureIn, Max VisibilityMiles, Mean VisibilityMiles, Min VisibilityMiles, Max Wind SpeedMPH, Mean Wind SpeedMPH, Max Gust SpeedMPH,PrecipitationIn, CloudCover, Events, WindDirDegrees
2014-1-1,40,30,19,27,22,16,88,74,59,30.26,30.15,30.02,10,9,2,10,3,14,T,2,Snow,53
2014-1-2,27,18,9,24,13,-1,92,75,58,30.38,30.03,29.91,10,2,0,24,12,32,0.23,7,Fog-Snow,5
2014-1-3,19,9,-2,6,1,-5,96,73,49,30.53,30.41,30.19,10,9,2,14,7,20,0.00,1,,204
2014-1-4,37,26,15,21,14,7,67,56,44,30.17,30.06,29.99,10,10,10,18,8,28,0.00,4,,191
2014-1-5,36,22,7,31,23,2,92,74,56,30.02,29.79,29.60,10,2,0,32,10,46,0.96,8,Fog-Snow,356
2014-1-6,7,-3,-13,0,-15,-20,86,72,58,30.44,30.22,29.93,10,4,1,31,14,42,T,6,Snow,275
2014-1-7,10,-2,-14,1,-9,-19,81,73,65,30.49,30.42,30.37,10,10,10,15,8,22,0.00,3,,207
2014-1-8,25,17,8,17,11,1,80,74,68,30.51,30.41,30.35,10,10,10,9,5,14,0.00,6,,253
2014-1-9,31,21,11,30,23,7,92,85,78,30.52,30.36,30.24,10,4,0,10,5,14,0.05,7,Fog-Snow,134
2014-1-10,42,37,31,43,35,30,100,93,85,30.23,30.00,29.66,4,2,0,12,7,17,0.28,8,Fog-Rain,154
2014-1-11,45,40,34,44,36,29,100,88,75,29.81,29.60,29.47,10,6,0,21,9,26,0.07,8,Fog-Rain,235
2014-1-12,45,37,29,30,27,25,85,67,49,30.04,29.91,29.81,10,9,6,21,9,29,0.00,4,,211
2014-1-13,50,42,34,41,35,28,85,66,46,29.81,29.72,29.64,10,10,10,21,10,32,0.00,4,,227
2014-1-14,45,34,22,33,25,15,100,75,49,29.96,29.84,29.74,10,8,0,24,10,33,0.02,4,Fog-Rain,241
2014-1-15,28,23,17,18,13,9,84,72,59,30.12,30.05,29.93,10,7,1,18,10,24,T,8,Snow,279
2014-1-16,32,25,17,26,21,11,92,79,65,30.03,29.76,29.65,10,5,0,16,9,26,0.11,7,Fog-Snow,195
2014-1-17,30,21,11,27,11,0,85,72,58,30.07,29.90,29.70,10,8,2,24,9,29,T,7,Snow,249
2014-1-18,25,19,13,22,16,8,92,77,62,30.05,29.84,29.74,10,4,0,16,7,24,0.08,7,Fog-Snow,160
2014-1-19,35,26,16,23,17,12,92,76,59,29.98,29.87,29.70,10,8,2,22,13,31,T,5,Snow,256
2014-1-20,38,34,29,28,26,23,82,71,59,29.92,29.85,29.67,10,10,8,16,7,25,0.00,3,,312
2014-1-21,31,16,1,27,9,-4,88,68,48,30.26,30.03,29.82,10,5,0,29,13,36,0.02,5,Fog-Snow,2
2014-1-22,17,7,-4,13,5,-7,95,81,66,30.25,30.06,29.95,10,5,0,30,9,38,T,6,Snow,241
2014-1-23,8,3,-3,0,-6,-12,79,69,59,30.66,30.43,30.13,10,8,1,22,13,28,T,4,Snow,287
2014-1-24,22,8,-6,14,-1,-10,82,63,43,30.66,30.25,29.79,10,9,1,28,11,37,T,2,Snow,211
2014-1-25,32,20,8,24,14,-4,91,71,50,29.94,29.64,29.52,10,4,1,36,16,47,0.05,6,Snow,259
2014-1-26,42,24,5,29,15,-3,70,58,46,29.92,29.66,29.55,10,9,1,39,9,53,T,6,Snow,226
2014-1-27,25,11,-3,17,-3,-15,81,67,53,30.49,30.15,29.73,10,8,1,36,17,47,T,4,Snow,303
2014-1-28,11,2,-7,-6,-10,-15,74,60,46,30.52,30.45,30.37,10,10,10,12,5,17,0.00,0,,264
2014-1-29,24,13,2,5,-1,-6,75,58,40,30.36,30.31,30.23,10,10,10,16,8,27,0.00,0,,215
2014-1-30,33,24,15,11,5,1,53,43,32,30.22,30.04,29.86,10,10,10,23,11,32,0.00,1,,192
2014-1-31,34,32,29,28,21,10,72,54,35,30.15,30.07,29.98,10,8,2,12,4,17,0.01,7,Snow,109